Time;durP1;ratioP1;P1;durP2;ratioP2;P2;SDS_P1;SDS_P2;PMS_P1;PMS_P2;Temp;Humidity;BMP_temperature;BMP_pressure;BME280_temperature;BME280_humidity;BME280_pressure;Samples;Min_cycle;Max_cycle;Signal;HPM_P1;HPM_P2
2023/10/29 00:00:31;;;;;;;6.70;5.95;;;;;;;-145.63;60.92;39270.66;5004538;28;20050;-69
2023/10/29 00:02:57;;;;;;;5.68;5.03;;;;;;;-145.63;61.11;39356.72;5004473;28;20060;-69
2023/10/29 00:05:24;;;;;;;4.80;4.10;;;;;;;-145.63;61.07;39313.69;5004471;28;20026;-69
2023/10/29 00:07:50;;;;;;;3.92;3.58;;;;;;;-145.63;60.88;39307.81;4986888;28;20045;-69
2023/10/29 00:10:18;;;;;;;4.80;4.40;;;;;;;-145.63;60.88;39301.94;5004144;28;20101;-67
2023/10/29 00:12:44;;;;;;;3.55;3.25;;;;;;;-145.63;60.68;39307.81;5003977;28;20026;-69
2023/10/29 00:15:10;;;;;;;3.53;3.22;;;;;;;-145.63;60.61;39305.88;5003848;28;20026;-70
2023/10/29 00:17:36;;;;;;;3.97;3.58;;;;;;;-145.63;60.55;39339.13;5004053;28;20026;-72
2023/10/29 00:20:06;;;;;;;3.88;3.40;;;;;;;-145.63;60.67;39301.94;5004020;28;20029;-72
2023/10/29 00:22:33;;;;;;;3.55;3.30;;;;;;;-145.63;60.84;39313.69;5003878;28;20028;-71
2023/10/29 00:24:59;;;;;;;3.72;3.42;;;;;;;-145.63;60.74;39325.41;5004154;28;20022;-71
2023/10/29 00:27:28;;;;;;;3.58;3.28;;;;;;;-145.63;60.73;39305.88;5004125;28;20184;-71
2023/10/29 00:29:54;;;;;;;3.90;3.45;;;;;;;-145.63;60.71;39290.22;4984551;28;20062;-70
2023/10/29 00:32:19;;;;;;;4.20;3.70;;;;;;;-145.63;60.90;39309.78;4998943;28;20052;-70
2023/10/29 00:34:46;;;;;;;3.95;3.50;;;;;;;-145.63;60.74;39311.72;4986505;28;20027;-70
2023/10/29 00:37:12;;;;;;;5.57;4.72;;;;;;;-145.63;60.94;39321.50;4986281;28;20371;-70
2023/10/29 00:39:38;;;;;;;29.92;23.55;;;;;;;-145.63;60.90;39282.41;5004201;28;20069;-70
2023/10/29 00:42:04;;;;;;;8.05;7.25;;;;;;;-145.63;61.00;39325.41;5003962;28;20326;-70
2023/10/29 00:44:30;;;;;;;7.40;6.70;;;;;;;-145.63;61.24;39341.06;5003616;28;20038;-69
2023/10/29 00:46:56;;;;;;;7.50;5.88;;;;;;;-145.63;60.93;39286.31;5003872;28;20030;-69
2023/10/29 00:49:21;;;;;;;5.40;4.88;;;;;;;-145.63;61.40;39307.81;5003829;28;20022;-70
2023/10/29 00:51:48;;;;;;;5.90;5.20;;;;;;;-145.63;61.36;39313.69;5003669;28;20050;-70
2023/10/29 00:54:14;;;;;;;6.20;5.60;;;;;;;-145.63;61.27;39311.72;5003594;28;20049;-70
2023/10/29 00:56:40;;;;;;;5.82;5.25;;;;;;;-145.63;61.33;39284.34;4985533;28;20105;-70
2023/10/29 00:59:06;;;;;;;5.75;4.80;;;;;;;-145.63;61.04;39282.41;5003653;28;20030;-70
2023/10/29 01:01:34;;;;;;;5.20;4.70;;;;;;;-145.63;61.02;39284.34;5003933;28;20049;-70
2023/10/29 01:04:00;;;;;;;4.55;4.15;;;;;;;-145.63;60.91;39313.69;4986132;28;20034;-71
2023/10/29 01:06:26;;;;;;;4.45;4.05;;;;;;;-145.63;60.69;39321.50;5002904;28;20033;-71
2023/10/29 01:08:53;;;;;;;4.30;3.90;;;;;;;-145.63;60.60;39362.59;5003993;28;20057;-70
2023/10/29 01:11:20;;;;;;;4.30;3.85;;;;;;;-145.63;61.03;39301.94;5003670;28;20026;-70
2023/10/29 01:13:46;;;;;;;5.15;4.65;;;;;;;-145.63;61.19;39319.56;4985754;28;20076;-69
2023/10/29 01:16:11;;;;;;;5.20;4.70;;;;;;;-145.63;60.96;39280.44;4986241;28;20198;-70
2023/10/29 01:18:37;;;;;;;5.93;5.32;;;;;;;-145.63;61.17;39294.13;5003337;28;20053;-70
2023/10/29 01:21:03;;;;;;;3.80;3.50;;;;;;;-145.63;60.84;39307.81;5003767;28;20056;-69
2023/10/29 01:23:30;;;;;;;4.20;3.85;;;;;;;-145.63;60.56;39290.22;5003289;28;20026;-69
2023/10/29 01:25:57;;;;;;;3.85;3.55;;;;;;;-145.63;60.33;39311.72;5003454;28;20198;-69
2023/10/29 01:28:24;;;;;;;4.07;3.67;;;;;;;-145.63;60.34;39286.31;5003366;28;20029;-69
2023/10/29 01:30:50;;;;;;;4.05;3.10;;;;;;;-145.63;60.46;39294.13;5004881;28;20210;-70
2023/10/29 01:33:15;;;;;;;4.28;3.65;;;;;;;-145.63;60.25;39303.91;5007157;28;20030;-68
2023/10/29 01:35:41;;;;;;;3.40;3.10;;;;;;;-145.63;60.59;39337.16;5007174;28;20381;-68
2023/10/29 01:38:07;;;;;;;6.38;5.25;;;;;;;-145.63;60.57;39321.50;5006934;28;20034;-69
2023/10/29 01:40:33;;;;;;;4.35;3.88;;;;;;;-145.63;60.25;39301.94;5006956;28;20051;-68
2023/10/29 01:42:59;;;;;;;5.20;4.18;;;;;;;-145.63;60.44;39319.56;5006773;28;20125;-69
2023/10/29 01:45:24;;;;;;;4.50;4.10;;;;;;;-145.63;60.29;39327.38;5006924;28;20244;-70
2023/10/29 01:47:50;;;;;;;8.65;6.95;;;;;;;-145.63;60.29;39309.78;5007002;28;20034;-69
2023/10/29 01:50:16;;;;;;;4.40;3.72;;;;;;;-145.63;60.42;39286.31;5001166;28;20138;-69
2023/10/29 01:52:41;;;;;;;5.53;4.75;;;;;;;-145.63;60.24;39280.44;5006665;28;20287;-69
2023/10/29 01:55:08;;;;;;;4.40;4.00;;;;;;;-145.63;60.27;39317.59;5005884;28;20022;-70
2023/10/29 01:57:35;;;;;;;4.32;3.92;;;;;;;-145.63;60.40;39307.81;5006698;28;20037;-71
2023/10/29 02:00:00;;;;;;;5.22;4.60;;;;;;;-145.63;60.57;39303.91;5006971;28;20331;-71
2023/10/29 02:02:27;;;;;;;6.45;5.85;;;;;;;-145.63;60.38;39329.34;5005784;28;20054;-69
2023/10/29 02:04:53;;;;;;;5.03;4.53;;;;;;;-145.63;60.67;39298.03;5006486;28;20077;-69
2023/10/29 02:07:19;;;;;;;4.50;3.40;;;;;;;-145.63;60.48;39270.66;5006421;28;20080;-70
2023/10/29 02:09:45;;;;;;;4.05;3.65;;;;;;;-145.63;60.65;39284.34;5006371;28;20026;-70
2023/10/29 02:12:11;;;;;;;5.00;4.20;;;;;;;-145.63;60.75;39313.69;5006293;28;20034;-69
2023/10/29 02:14:38;;;;;;;4.45;3.83;;;;;;;-145.63;60.46;39300.00;5006418;28;20029;-70
2023/10/29 02:17:04;;;;;;;3.33;3.03;;;;;;;-145.63;60.36;39321.50;5006410;28;20034;-71
2023/10/29 02:19:31;;;;;;;5.22;3.70;;;;;;;-145.63;60.16;39325.41;5006328;28;20022;-72
2023/10/29 02:21:57;;;;;;;3.63;3.30;;;;;;;-145.63;60.65;39301.94;5020609;28;20026;-72
2023/10/29 02:24:22;;;;;;;4.05;3.65;;;;;;;-145.63;60.65;39313.69;4988627;28;20306;-73
2023/10/29 02:26:48;;;;;;;3.63;3.33;;;;;;;-145.63;60.26;39321.50;5006277;28;20026;-72
2023/10/29 02:29:14;;;;;;;3.60;3.30;;;;;;;-145.63;59.74;39317.59;5006034;28;20031;-72
2023/10/29 02:31:40;;;;;;;3.58;3.28;;;;;;;-145.63;59.91;39266.75;5005983;28;20344;-72
2023/10/29 02:34:05;;;;;;;3.28;2.78;;;;;;;-145.63;59.97;39329.34;5005815;28;20045;-71
2023/10/29 02:36:31;;;;;;;3.97;3.10;;;;;;;-145.63;60.06;39255.00;4988695;28;20085;-72
2023/10/29 02:38:57;;;;;;;3.55;3.25;;;;;;;-145.63;59.84;39354.75;5006063;28;20034;-72
2023/10/29 02:41:24;;;;;;;3.20;2.90;;;;;;;-145.63;59.76;39307.81;5005596;28;20022;-73
2023/10/29 02:43:49;;;;;;;3.65;3.08;;;;;;;-145.63;59.78;39337.16;5006012;28;20030;-72
2023/10/29 02:46:16;;;;;;;3.38;3.08;;;;;;;-145.63;59.83;39448.63;5006021;28;20199;-72
2023/10/29 02:48:41;;;;;;;3.28;2.97;;;;;;;-145.63;60.06;39301.94;5005305;28;20037;-73
2023/10/29 02:51:11;;;;;;;3.30;3.00;;;;;;;-145.63;60.07;39317.59;5005728;28;20030;-73
2023/10/29 02:53:37;;;;;;;8.00;6.63;;;;;;;-145.63;59.88;39317.59;5005776;28;20050;-72
2023/10/29 02:56:03;;;;;;;3.63;3.30;;;;;;;-145.63;59.96;39290.22;5004782;28;20030;-71
2023/10/29 02:58:28;;;;;;;4.05;3.30;;;;;;;-145.63;60.45;39296.09;5008733;28;20042;-72
2023/10/29 03:01:03;;;;;;;3.40;3.10;;;;;;;-145.63;59.69;39341.06;5005803;28;20038;-72
2023/10/29 03:03:28;;;;;;;5.43;3.38;;;;;;;-145.63;59.57;39292.19;5005532;28;20077;-72
2023/10/29 03:05:54;;;;;;;3.10;2.90;;;;;;;-145.63;59.38;39307.81;4988079;28;20319;-71
2023/10/29 03:08:20;;;;;;;3.85;3.28;;;;;;;-145.63;59.78;39329.34;5005450;28;20030;-71
2023/10/29 03:10:49;;;;;;;3.45;3.05;;;;;;;-145.63;60.00;39321.50;4971793;28;20030;-72
2023/10/29 03:13:15;;;;;;;3.30;2.75;;;;;;;-145.63;59.71;39303.91;4987502;28;20334;-72
2023/10/29 03:15:40;;;;;;;3.20;2.90;;;;;;;-145.63;59.38;39344.97;5005229;28;20033;-73
2023/10/29 03:18:06;;;;;;;3.67;3.30;;;;;;;-145.63;60.38;39288.25;4987976;28;20034;-72
2023/10/29 03:20:32;;;;;;;4.03;3.40;;;;;;;-145.63;59.92;39331.28;5008097;28;20074;-72
2023/10/29 03:22:57;;;;;;;3.40;3.10;;;;;;;-145.63;59.38;39321.50;5016566;28;20078;-72
2023/10/29 03:25:23;;;;;;;4.13;3.22;;;;;;;-145.63;59.47;39313.69;5011844;28;20037;-71
2023/10/29 03:27:49;;;;;;;3.72;3.40;;;;;;;-145.63;59.74;39317.59;5005631;28;20036;-71
2023/10/29 03:30:15;;;;;;;3.88;3.55;;;;;;;-145.63;59.31;39337.16;5004718;28;20222;-71
2023/10/29 03:32:41;;;;;;;3.80;3.45;;;;;;;-145.63;58.86;39321.50;5004500;28;20038;-72
2023/10/29 03:35:06;;;;;;;3.88;3.50;;;;;;;-145.63;59.21;39317.59;5004834;28;20045;-72
2023/10/29 03:37:32;;;;;;;4.85;4.15;;;;;;;-145.63;59.48;39321.50;5004266;28;20033;-70
2023/10/29 03:39:58;;;;;;;4.07;3.78;;;;;;;-145.63;59.68;39315.66;5004360;28;20041;-72
2023/10/29 03:42:24;;;;;;;4.07;3.40;;;;;;;-145.63;59.38;39303.91;5004344;28;20033;-71
2023/10/29 03:44:50;;;;;;;4.47;4.07;;;;;;;-145.63;59.80;39315.66;5004504;28;20037;-69
2023/10/29 03:47:15;;;;;;;4.10;3.70;;;;;;;-145.63;59.57;39327.38;5004470;28;20327;-69
2023/10/29 03:49:44;;;;;;;4.20;3.80;;;;;;;-145.63;59.57;39319.56;5004379;28;20038;-70
2023/10/29 03:52:10;;;;;;;4.15;3.75;;;;;;;-145.63;59.69;39300.00;5004454;28;20062;-70
2023/10/29 03:54:35;;;;;;;4.20;3.80;;;;;;;-145.63;59.69;39329.34;4985507;28;20042;-70
2023/10/29 03:57:01;;;;;;;5.30;4.80;;;;;;;-145.63;59.59;39305.88;5003919;28;20057;-70
2023/10/29 03:59:27;;;;;;;4.28;3.88;;;;;;;-145.63;59.54;39300.00;5004304;28;20022;-70
2023/10/29 04:01:53;;;;;;;3.70;3.40;;;;;;;-145.63;59.38;39296.09;5004405;28;20026;-70
2023/10/29 04:04:18;;;;;;;3.88;3.58;;;;;;;-145.63;59.78;39278.47;5004187;28;20034;-71
2023/10/29 04:06:44;;;;;;;4.47;3.97;;;;;;;-145.63;59.15;39301.94;5003658;28;20314;-70
2023/10/29 04:09:10;;;;;;;4.30;3.90;;;;;;;-145.63;59.69;39296.09;4986822;28;20026;-71
2023/10/29 04:11:36;;;;;;;6.38;4.20;;;;;;;-145.63;59.67;39311.72;4986904;28;20027;-71
2023/10/29 04:14:01;;;;;;;4.13;3.67;;;;;;;-145.63;59.55;39309.78;5004275;28;20022;-72
2023/10/29 04:16:28;;;;;;;3.85;3.55;;;;;;;-145.63;59.68;39307.81;5003881;28;20026;-71
2023/10/29 04:18:54;;;;;;;4.18;3.78;;;;;;;-145.63;59.42;39313.69;5007190;28;20025;-71
2023/10/29 04:21:20;;;;;;;5.22;4.07;;;;;;;-145.63;60.08;39321.50;5004047;28;20049;-71
2023/10/29 04:23:45;;;;;;;4.80;4.13;;;;;;;-145.63;59.63;39339.13;5004051;28;20052;-71
2023/10/29 04:26:11;;;;;;;4.63;4.10;;;;;;;-145.63;59.67;39300.00;5003694;28;20022;-70
2023/10/29 04:28:37;;;;;;;5.03;3.92;;;;;;;-145.63;59.31;39339.13;5004419;28;20029;-71
2023/10/29 04:31:03;;;;;;;5.47;4.47;;;;;;;-145.63;59.46;39317.59;5004047;28;20329;-71
2023/10/29 04:33:28;;;;;;;4.75;4.35;;;;;;;-145.63;59.51;39317.59;5004020;28;20092;-71
2023/10/29 04:35:54;;;;;;;5.57;4.70;;;;;;;-145.63;59.83;39372.34;5003888;28;20226;-71
2023/10/29 04:38:20;;;;;;;5.40;4.65;;;;;;;-145.63;59.78;39313.69;5003652;28;20026;-71
2023/10/29 04:40:45;;;;;;;6.05;5.45;;;;;;;-145.63;59.88;39317.59;5003772;28;20026;-71
2023/10/29 04:43:11;;;;;;;5.38;4.68;;;;;;;-145.63;59.38;39305.88;5003974;28;20075;-70
2023/10/29 04:45:37;;;;;;;5.68;4.90;;;;;;;-145.63;59.48;39301.94;5003970;28;20367;-70
2023/10/29 04:48:03;;;;;;;6.45;4.90;;;;;;;-145.63;59.29;39321.50;5002385;28;20022;-70
2023/10/29 04:50:30;;;;;;;5.47;4.72;;;;;;;-145.63;59.11;39305.88;4999376;28;20093;-71
2023/10/29 04:52:57;;;;;;;5.20;4.70;;;;;;;-145.63;59.42;39335.19;5003492;28;20037;-70
2023/10/29 04:55:22;;;;;;;5.80;5.15;;;;;;;-145.63;59.23;39337.16;5002804;28;20034;-71
2023/10/29 04:57:48;;;;;;;6.13;5.40;;;;;;;-145.63;59.28;39325.41;5003410;28;20037;-71
2023/10/29 05:00:14;;;;;;;5.57;5.07;;;;;;;-145.63;58.92;39313.69;5003414;28;20034;-70
2023/10/29 05:02:39;;;;;;;5.95;5.45;;;;;;;-145.63;59.55;39305.88;4986028;28;20254;-71
2023/10/29 05:05:06;;;;;;;7.13;5.72;;;;;;;-145.63;59.39;39309.78;5005415;28;20037;-72
2023/10/29 05:07:36;;;;;;;5.93;5.32;;;;;;;-145.63;59.40;39313.69;5007403;28;20038;-71
2023/10/29 05:10:01;;;;;;;5.78;5.18;;;;;;;-145.63;59.20;39307.81;5007690;28;20019;-69
2023/10/29 05:12:30;;;;;;;6.22;5.72;;;;;;;-145.63;59.46;39333.25;5006132;28;20353;-70
2023/10/29 05:14:56;;;;;;;5.80;5.30;;;;;;;-145.63;59.15;39307.81;5008893;28;20038;-70
2023/10/29 05:17:22;;;;;;;6.22;5.72;;;;;;;-145.63;58.70;39323.47;5007287;28;20030;-71
2023/10/29 05:19:47;;;;;;;6.15;5.55;;;;;;;-145.63;59.01;39321.50;5007548;28;20124;-70
2023/10/29 05:22:13;;;;;;;5.72;5.22;;;;;;;-145.63;58.76;39321.50;5006998;28;20038;-70
2023/10/29 05:24:39;;;;;;;6.25;5.57;;;;;;;-145.63;58.76;39341.06;5007261;28;20034;-70
2023/10/29 05:27:04;;;;;;;6.53;5.43;;;;;;;-145.63;59.33;39309.78;5007208;28;20051;-70
2023/10/29 05:29:32;;;;;;;6.47;5.88;;;;;;;-145.63;59.18;39331.28;5007024;28;20044;-70
2023/10/29 05:31:58;;;;;;;6.90;6.20;;;;;;;-145.63;59.42;39325.41;5006294;28;20022;-70
2023/10/29 05:34:23;;;;;;;6.25;5.65;;;;;;;-145.63;59.37;39311.72;5006802;28;20080;-70
2023/10/29 05:36:49;;;;;;;6.90;6.25;;;;;;;-145.63;59.78;39309.78;5006706;28;20234;-71
2023/10/29 05:39:15;;;;;;;6.30;5.70;;;;;;;-145.63;59.55;39317.59;5007264;28;20035;-70
2023/10/29 05:41:41;;;;;;;6.90;6.18;;;;;;;-145.63;60.07;39327.38;5007079;28;20026;-71
2023/10/29 05:44:07;;;;;;;7.80;6.75;;;;;;;-145.63;59.64;39301.94;5006962;28;20033;-72
2023/10/29 05:46:32;;;;;;;9.30;7.60;;;;;;;-145.63;59.70;39301.94;5006062;28;20038;-71
2023/10/29 05:48:59;;;;;;;10.05;6.97;;;;;;;-145.63;59.63;39305.88;5006948;28;20033;-70
2023/10/29 05:51:24;;;;;;;7.72;6.93;;;;;;;-145.63;59.65;39315.66;5006710;28;20053;-71
2023/10/29 05:53:50;;;;;;;8.32;7.07;;;;;;;-145.63;59.74;39311.72;5006500;28;20259;-70
2023/10/29 05:56:18;;;;;;;7.75;7.05;;;;;;;-145.63;59.20;39313.69;5005937;28;20034;-70
2023/10/29 05:58:44;;;;;;;8.85;7.40;;;;;;;-145.63;59.40;39339.13;5006388;28;20030;-70
2023/10/29 06:01:11;;;;;;;8.20;7.35;;;;;;;-145.63;59.70;39290.22;5006106;28;20042;-72
2023/10/29 06:03:37;;;;;;;8.95;8.00;;;;;;;-145.63;59.72;39294.13;5006690;28;20026;-71
2023/10/29 06:06:02;;;;;;;9.27;8.27;;;;;;;-145.63;59.74;39300.00;5006661;28;20315;-70
2023/10/29 06:08:28;;;;;;;8.23;7.43;;;;;;;-145.63;59.92;39278.47;5005953;28;20022;-69
2023/10/29 06:10:54;;;;;;;6.90;6.22;;;;;;;-145.63;59.74;39301.94;5006333;28;20026;-70
2023/10/29 06:13:20;;;;;;;7.97;7.10;;;;;;;-145.63;59.49;39317.59;5005186;28;20061;-71
2023/10/29 06:15:45;;;;;;;8.32;6.72;;;;;;;-145.63;60.05;39292.19;5005971;28;20072;-70
2023/10/29 06:18:12;;;;;;;8.43;7.25;;;;;;;-145.63;59.98;39307.81;4988565;28;20026;-70
2023/10/29 06:20:41;;;;;;;7.75;6.80;;;;;;;-145.63;59.90;39339.13;5006141;28;20057;-71
2023/10/29 06:23:08;;;;;;;9.18;7.80;;;;;;;-145.63;60.00;39294.13;5006469;28;20102;-71
2023/10/29 06:25:33;;;;;;;9.23;7.55;;;;;;;-145.63;60.11;39290.22;5005946;28;20026;-70
2023/10/29 06:27:59;;;;;;;8.68;7.60;;;;;;;-145.63;60.17;39303.91;5003859;28;20183;-71
2023/10/29 06:30:25;;;;;;;9.07;7.53;;;;;;;-145.63;59.93;39292.19;5005575;28;20034;-72
2023/10/29 06:32:51;;;;;;;8.48;7.30;;;;;;;-145.63;59.61;39335.19;5006014;28;20062;-71
2023/10/29 06:35:17;;;;;;;8.98;7.20;;;;;;;-145.63;59.38;39298.03;4989013;28;20019;-69
2023/10/29 06:37:43;;;;;;;9.90;7.60;;;;;;;-145.63;59.66;39301.94;5005862;28;20022;-71
2023/10/29 06:40:09;;;;;;;8.73;7.28;;;;;;;-145.63;59.28;39301.94;5006034;28;20341;-72
2023/10/29 06:42:35;;;;;;;9.52;8.00;;;;;;;-145.63;59.05;39315.66;4988682;28;20093;-71
2023/10/29 06:45:02;;;;;;;8.55;7.47;;;;;;;-145.63;59.11;39335.19;5006026;28;20018;-70
2023/10/29 06:47:30;;;;;;;9.45;7.55;;;;;;;-145.63;59.09;39282.41;5005748;28;20068;-70
2023/10/29 06:49:56;;;;;;;7.63;6.82;;;;;;;-145.63;58.93;39307.81;4988003;28;20038;-70
2023/10/29 06:52:22;;;;;;;7.38;6.65;;;;;;;-145.63;58.97;39284.34;5005596;28;20049;-71
2023/10/29 06:54:47;;;;;;;7.95;7.15;;;;;;;-145.63;58.56;39116.16;5005278;28;20035;-70
2023/10/29 06:57:13;;;;;;;8.30;6.72;;;;;;;-145.63;58.62;39278.47;5005089;28;20040;-71
2023/10/29 06:59:39;;;;;;;8.77;6.85;;;;;;;-145.63;58.28;39329.34;5005695;28;20029;-71
2023/10/29 07:02:06;;;;;;;7.38;6.60;;;;;;;-145.63;58.47;39262.84;4997245;28;20030;-71
2023/10/29 07:04:32;;;;;;;8.35;7.00;;;;;;;-145.63;58.34;39276.53;5005124;28;20041;-71
2023/10/29 07:06:58;;;;;;;10.57;6.88;;;;;;;-145.63;58.21;39300.00;5010806;28;20057;-70
2023/10/29 07:09:23;;;;;;;7.90;7.10;;;;;;;-145.63;58.01;39210.03;5025079;28;20045;-71
2023/10/29 07:11:49;;;;;;;8.80;7.22;;;;;;;-145.63;58.51;39298.03;5009134;28;20038;-71
2023/10/29 07:14:15;;;;;;;8.00;7.00;;;;;;;-145.63;58.56;39315.66;5001569;28;20315;-70
2023/10/29 07:16:44;;;;;;;7.75;6.95;;;;;;;-145.63;58.20;39341.06;4996736;28;20033;-72
2023/10/29 07:19:12;;;;;;;7.85;7.05;;;;;;;-145.63;58.34;39344.97;4980490;28;20053;-71
2023/10/29 07:21:38;;;;;;;8.63;7.18;;;;;;;-145.63;58.79;39321.50;4995610;28;20022;-70
2023/10/29 07:24:05;;;;;;;8.57;7.70;;;;;;;-145.63;58.67;39309.78;4995897;28;20049;-71
2023/10/29 07:26:33;;;;;;;10.90;9.80;;;;;;;-145.63;58.99;39300.00;4996977;28;20046;-71
2023/10/29 07:28:59;;;;;;;10.55;9.38;;;;;;;-145.63;58.78;39331.28;4996979;28;20129;-71
2023/10/29 07:31:24;;;;;;;12.85;11.55;;;;;;;-145.63;58.42;39300.00;4995612;28;20038;-71
2023/10/29 07:33:52;;;;;;;11.77;9.85;;;;;;;-145.63;58.97;39317.59;5001829;28;20029;-71
2023/10/29 07:36:18;;;;;;;11.90;10.48;;;;;;;-145.63;58.95;39313.69;5005879;28;20030;-69
2023/10/29 07:38:44;;;;;;;12.93;10.13;;;;;;;-145.63;59.21;39354.75;5010716;28;20060;-70
2023/10/29 07:41:10;;;;;;;13.82;10.95;;;;;;;-145.63;58.85;39321.50;5006725;28;20030;-70
2023/10/29 07:43:35;;;;;;;13.35;11.95;;;;;;;-145.63;58.54;39346.94;5005111;28;20034;-70
2023/10/29 07:46:04;;;;;;;12.57;11.23;;;;;;;-145.63;58.63;39350.84;5004825;28;20082;-70
2023/10/29 07:48:30;;;;;;;15.18;11.95;;;;;;;-145.63;58.80;39323.47;4999073;28;20039;-70
2023/10/29 07:50:55;;;;;;;16.17;11.57;;;;;;;-145.63;58.73;39264.78;5000997;28;20069;-71
2023/10/29 07:53:21;;;;;;;16.08;12.75;;;;;;;-145.63;59.09;39319.56;5004032;28;20064;-70
2023/10/29 07:55:47;;;;;;;13.93;12.15;;;;;;;-145.63;58.76;39333.25;5004047;28;20045;-70
2023/10/29 07:58:13;;;;;;;13.52;11.88;;;;;;;-145.63;58.96;39337.16;5003784;28;20031;-68
2023/10/29 08:00:39;;;;;;;13.45;11.25;;;;;;;-145.63;58.70;39321.50;4987208;28;20057;-70
2023/10/29 08:03:04;;;;;;;18.27;12.90;;;;;;;-145.63;59.10;39288.25;5004382;28;20028;-70
2023/10/29 08:05:30;;;;;;;14.77;12.57;;;;;;;-145.63;58.92;39331.28;5004035;28;20058;-70
2023/10/29 08:07:56;;;;;;;15.32;12.07;;;;;;;-145.63;59.50;39352.81;5017613;28;20040;-70
2023/10/29 08:10:23;;;;;;;15.52;13.15;;;;;;;-145.63;59.09;39282.41;5020384;28;20037;-72
2023/10/29 08:12:49;;;;;;;14.73;12.13;;;;;;;-145.63;59.00;39311.72;4986857;28;20044;-71
2023/10/29 08:15:15;;;;;;;13.40;11.82;;;;;;;-145.63;58.95;39321.50;5004045;28;20243;-71
2023/10/29 08:17:40;;;;;;;17.23;12.93;;;;;;;-145.63;58.55;39307.81;5004411;28;20026;-70
2023/10/29 08:20:06;;;;;;;16.52;12.88;;;;;;;-145.63;58.54;39352.81;5004162;28;20199;-70
2023/10/29 08:22:32;;;;;;;17.40;14.13;;;;;;;-145.63;58.89;39362.59;5003803;28;20034;-70
2023/10/29 08:24:59;;;;;;;16.80;13.25;;;;;;;-145.63;58.64;39335.19;4986135;28;20029;-70
2023/10/29 08:27:25;;;;;;;80.50;41.05;;;;;;;-145.63;58.58;39313.69;4984884;28;20023;-70
2023/10/29 08:29:52;;;;;;;19.48;13.88;;;;;;;-145.63;58.78;39378.22;4999430;28;20602;-70
2023/10/29 08:32:18;;;;;;;16.85;13.48;;;;;;;-145.63;58.67;39303.91;4986207;28;20318;-70
2023/10/29 08:34:44;;;;;;;17.80;13.95;;;;;;;-145.63;58.38;39341.06;5003668;28;20038;-71
2023/10/29 08:37:13;;;;;;;15.85;13.05;;;;;;;-145.63;58.67;39321.50;5004002;28;20026;-71
2023/10/29 08:39:39;;;;;;;13.55;11.60;;;;;;;-145.63;58.73;39311.72;5003669;28;20060;-70
2023/10/29 08:42:05;;;;;;;13.20;11.63;;;;;;;-145.63;58.85;39354.75;5003813;28;20030;-70
2023/10/29 08:44:31;;;;;;;15.95;13.10;;;;;;;-145.63;57.92;39325.41;5003515;28;20044;-72
2023/10/29 08:46:57;;;;;;;15.82;13.10;;;;;;;-145.63;58.14;39335.19;5003851;28;20026;-71
2023/10/29 08:49:23;;;;;;;16.83;13.30;;;;;;;-145.63;58.02;39278.47;4994802;28;20034;-71
2023/10/29 08:51:50;;;;;;;13.82;12.43;;;;;;;-145.63;57.96;39325.41;4970329;28;20029;-71
2023/10/29 08:54:15;;;;;;;18.23;13.52;;;;;;;-145.63;57.99;39256.97;5003122;28;20049;-69
2023/10/29 08:56:41;;;;;;;14.65;12.45;;;;;;;-145.63;58.15;39309.78;5002764;28;20034;-69
2023/10/29 08:59:07;;;;;;;18.17;13.13;;;;;;;-145.63;58.11;39276.53;5003429;28;20022;-68
2023/10/29 09:01:33;;;;;;;16.83;13.45;;;;;;;-145.63;58.22;39329.34;5002781;28;20441;-71
2023/10/29 09:04:00;;;;;;;15.35;12.88;;;;;;;-145.63;57.88;39321.50;5003298;28;20038;-70
2023/10/29 09:06:26;;;;;;;19.83;14.85;;;;;;;-145.63;58.30;39298.03;5003300;28;20026;-71
2023/10/29 09:08:52;;;;;;;17.38;13.15;;;;;;;-145.63;58.20;39313.69;5004389;28;20037;-71
2023/10/29 09:11:18;;;;;;;16.85;13.35;;;;;;;-145.63;58.02;39309.78;5003507;28;20242;-70
2023/10/29 09:13:44;;;;;;;40.38;27.25;;;;;;;-145.63;58.28;39321.50;5003639;28;20022;-70
2023/10/29 09:16:09;;;;;;;26.40;18.60;;;;;;;-145.63;57.72;39341.06;5003707;28;20026;-70
2023/10/29 09:18:35;;;;;;;21.58;15.85;;;;;;;-145.63;58.31;39350.84;5003655;28;20242;-71
2023/10/29 09:21:01;;;;;;;19.00;14.18;;;;;;;-145.63;57.86;39341.06;5003576;28;20034;-68
2023/10/29 09:23:29;;;;;;;17.17;13.43;;;;;;;-145.63;58.24;39329.34;5003326;28;20026;-69
2023/10/29 09:25:59;;;;;;;17.85;13.82;;;;;;;-145.63;58.07;39341.06;4986106;28;20210;-69
2023/10/29 09:28:26;;;;;;;20.80;14.30;;;;;;;-145.63;58.34;39327.38;5003316;28;20033;-69
2023/10/29 09:30:51;;;;;;;18.27;13.23;;;;;;;-145.63;58.41;39352.81;5003222;28;20054;-68
2023/10/29 09:33:17;;;;;;;19.98;13.88;;;;;;;-145.63;58.12;39321.50;5002270;28;20049;-68
2023/10/29 09:35:43;;;;;;;18.85;14.32;;;;;;;-145.63;58.42;39317.59;5002946;28;20018;-68
2023/10/29 09:38:09;;;;;;;18.25;14.23;;;;;;;-145.63;58.53;39315.66;5003514;28;20069;-68
2023/10/29 09:40:38;;;;;;;19.52;14.20;;;;;;;-145.63;58.10;39298.03;4969364;28;20250;-69
2023/10/29 09:43:08;;;;;;;18.02;13.48;;;;;;;-145.63;58.65;39337.16;5003371;28;20045;-68
2023/10/29 09:45:39;;;;;;;22.55;14.45;;;;;;;-145.63;58.72;39384.09;4983761;28;20034;-69
2023/10/29 09:48:07;;;;;;;19.67;14.98;;;;;;;-145.63;57.94;39264.78;4999701;28;20223;-69
2023/10/29 09:50:33;;;;;;;21.30;16.27;;;;;;;-145.63;58.17;39311.72;5002967;28;20243;-69
2023/10/29 09:53:01;;;;;;;21.00;15.45;;;;;;;-145.63;58.15;39327.38;5017677;28;20053;-69
2023/10/29 09:55:28;;;;;;;20.52;16.70;;;;;;;-145.63;58.16;39352.81;4988536;28;20065;-69
2023/10/29 09:57:53;;;;;;;19.08;13.52;;;;;;;-145.63;57.89;39348.88;5006877;28;20105;-69
2023/10/29 10:00:19;;;;;;;17.15;14.68;;;;;;;-145.63;57.61;39354.75;5006686;28;20033;-69
2023/10/29 10:02:49;;;;;;;17.95;14.75;;;;;;;-145.63;57.93;39313.69;5006410;28;20018;-70
2023/10/29 10:05:18;;;;;;;17.67;14.02;;;;;;;-145.63;57.84;39346.94;5006584;28;20049;-71
2023/10/29 10:07:44;;;;;;;14.85;13.23;;;;;;;-145.63;57.71;39491.66;5018265;28;20031;-71
2023/10/29 10:10:10;;;;;;;18.17;13.98;;;;;;;-145.63;57.55;39311.72;5011206;28;20033;-68
2023/10/29 10:12:48;;;;;;;18.23;14.88;;;;;;;-145.63;57.38;39290.22;5006810;28;20192;-70
2023/10/29 10:15:19;;;;;;;18.92;15.20;;;;;;;-145.63;56.79;39397.78;5006642;28;20105;-71
2023/10/29 10:18:04;;;;;;;19.55;15.05;;;;;;;-145.63;57.23;39303.91;4988835;28;20101;-70
2023/10/29 10:20:31;;;;;;;17.30;14.13;;;;;;;-145.63;56.95;39403.66;4988287;28;20102;-69
2023/10/29 10:22:58;;;;;;;19.33;14.45;;;;;;;-145.63;56.99;39268.72;5005884;28;20041;-70
2023/10/29 10:25:25;;;;;;;16.33;13.30;;;;;;;-145.63;57.48;39286.31;5002744;28;20022;-70
2023/10/29 10:27:52;;;;;;;18.08;14.15;;;;;;;-145.63;57.40;39278.47;4997504;28;20023;-70
2023/10/29 10:30:30;;;;;;;17.58;13.00;;;;;;;-145.63;56.99;39319.56;4996044;28;20321;-70
2023/10/29 10:33:12;;;;;;;15.80;13.68;;;;;;;-145.63;57.34;39323.47;5001076;28;20242;-70
2023/10/29 10:35:44;;;;;;;16.10;13.70;;;;;;;-145.63;56.99;39294.13;4997093;28;20090;-69
2023/10/29 10:38:10;;;;;;;12.90;11.02;;;;;;;-145.63;55.95;39278.47;4997581;28;20037;-70
2023/10/29 10:40:37;;;;;;;11.57;9.88;;;;;;;-145.63;55.51;39284.34;4996759;28;20137;-70
2023/10/29 10:43:04;;;;;;;11.30;10.10;;;;;;;-145.63;55.32;39325.41;4997982;28;20032;-70
2023/10/29 10:45:32;;;;;;;11.63;10.43;;;;;;;-145.63;55.31;39294.13;5004738;28;20108;-70
2023/10/29 10:48:03;;;;;;;11.98;10.52;;;;;;;-145.63;55.62;39325.41;4991574;28;20066;-69
2023/10/29 10:50:29;;;;;;;;;;;;;;;-145.63;55.55;39296.09;5003740;28;20053;-70
2023/10/29 10:52:56;;;;;;;11.20;9.43;;;;;;;-145.63;55.63;39286.31;5005265;28;19922;-70
2023/10/29 10:55:24;;;;;;;11.85;10.30;;;;;;;-145.63;55.79;39290.22;4996872;28;20063;-71
2023/10/29 10:57:50;;;;;;;11.73;10.38;;;;;;;-145.63;56.11;39298.03;5005083;28;20034;-70
2023/10/29 11:00:17;;;;;;;11.85;9.63;;;;;;;-145.63;55.62;39337.16;5005414;28;20038;-71
2023/10/29 11:02:44;;;;;;;11.85;9.90;;;;;;;-145.63;55.66;39329.34;5005588;28;20053;-70
2023/10/29 11:05:11;;;;;;;11.57;10.07;;;;;;;-145.63;55.12;39321.50;5005231;28;20026;-71
2023/10/29 11:07:38;;;;;;;12.25;10.30;;;;;;;-145.63;55.22;39313.69;4988072;28;20089;-72